Time;durP1;ratioP1;P1;durP2;ratioP2;P2;SDS_P1;SDS_P2;PMS_P1;PMS_P2;Temp;Humidity;BMP_temperature;BMP_pressure;BME280_temperature;BME280_humidity;BME280_pressure;Samples;Min_cycle;Max_cycle;Signal;HPM_P1;HPM_P2
2024/04/05 00:38:40;;;;;;;3.42;1.98;;;11.30;99.90;;;;;;5270590;22;20229;-88
2024/04/05 00:41:56;;;;;;;4.70;1.77;;;11.20;99.90;;;;;;5015000;28;20199;-88
2024/04/05 00:44:23;;;;;;;2.80;1.60;;;11.20;99.90;;;;;;5034309;28;20210;-88
2024/04/05 00:50:30;;;;;;;3.42;1.90;;;11.30;99.90;;;;;;5028042;28;20240;-88
2024/04/05 00:53:24;;;;;;;2.45;1.90;;;11.20;99.90;;;;;;5035623;28;20261;-88
2024/04/05 00:55:54;;;;;;;2.72;1.65;;;11.20;99.90;;;;;;5005398;28;20271;-88
2024/04/05 00:58:21;;;;;;;4.72;1.75;;;11.20;99.90;;;;;;5017956;28;20264;-88
2024/04/05 01:00:50;;;;;;;2.83;1.95;;;11.20;99.90;;;;;;5017717;28;20222;-88
2024/04/05 01:16:15;;;;;;;4.05;2.10;;;11.20;99.90;;;;;;5095572;22;20244;-88
2024/04/05 01:18:44;;;;;;;4.22;1.80;;;11.20;99.90;;;;;;4995957;28;20218;-88
2024/04/05 01:21:11;;;;;;;2.95;1.98;;;11.10;99.90;;;;;;4995657;28;20572;-88
2024/04/05 01:23:41;;;;;;;4.13;1.95;;;11.10;99.90;;;;;;4981011;28;20275;-87
2024/04/05 01:26:08;;;;;;;3.65;2.00;;;11.10;99.90;;;;;;4995456;28;20234;-88
2024/04/05 01:28:34;;;;;;;2.63;1.95;;;11.00;99.90;;;;;;4994275;28;20274;-88
2024/04/05 01:31:01;;;;;;;5.15;1.85;;;11.00;99.90;;;;;;4996558;28;20665;-87
2024/04/05 01:33:27;;;;;;;5.18;1.80;;;11.00;99.90;;;;;;4979040;28;20214;-88
2024/04/05 01:35:54;;;;;;;4.45;2.08;;;11.10;99.90;;;;;;4977961;28;20279;-87
2024/04/05 01:38:20;;;;;;;2.78;1.70;;;11.00;99.90;;;;;;4995349;28;20207;-88
2024/04/05 01:40:54;;;;;;;2.67;1.50;;;11.10;99.90;;;;;;4996057;28;20573;-88
2024/04/05 01:43:20;;;;;;;2.80;1.85;;;11.10;99.90;;;;;;4994384;28;20772;-87
2024/04/05 01:45:47;;;;;;;2.03;1.70;;;11.00;99.90;;;;;;4993897;28;20250;-88
2024/04/05 01:48:13;;;;;;;4.30;1.70;;;11.00;99.90;;;;;;4977732;28;20204;-87
2024/04/05 01:50:40;;;;;;;2.75;1.52;;;11.00;99.90;;;;;;5000232;28;20303;-88
2024/04/05 01:53:06;;;;;;;2.25;1.60;;;11.00;99.90;;;;;;4995325;28;20200;-88
2024/04/05 01:55:33;;;;;;;2.35;1.30;;;11.00;99.90;;;;;;5006983;28;20203;-87
2024/04/05 01:58:00;;;;;;;2.58;1.50;;;11.00;99.90;;;;;;4994060;28;20200;-89
2024/04/05 02:00:27;;;;;;;5.00;1.70;;;10.90;99.90;;;;;;4994416;28;20235;-88
2024/04/05 02:02:53;;;;;;;4.63;1.55;;;10.90;99.90;;;;;;4981150;28;20223;-87
2024/04/05 02:05:20;;;;;;;4.40;1.92;;;10.80;99.90;;;;;;4994529;28;20212;-87
2024/04/05 02:07:46;;;;;;;3.00;1.50;;;10.90;99.90;;;;;;4976722;28;20211;-87
2024/04/05 02:10:13;;;;;;;4.53;1.77;;;11.00;99.90;;;;;;4985756;28;20219;-87
2024/04/05 02:12:39;;;;;;;3.08;1.80;;;11.10;99.90;;;;;;4980905;28;20203;-88
2024/04/05 02:15:08;;;;;;;2.95;1.50;;;11.00;99.90;;;;;;4976361;28;20223;-87
2024/04/05 02:17:34;;;;;;;3.78;1.80;;;10.90;99.90;;;;;;4993768;28;20204;-88
2024/04/05 02:20:01;;;;;;;2.25;1.70;;;10.90;99.90;;;;;;4976744;28;20210;-87
2024/04/05 02:22:26;;;;;;;4.07;1.98;;;10.80;99.90;;;;;;4977017;28;20232;-88
2024/04/05 02:24:53;;;;;;;3.28;1.60;;;10.90;99.90;;;;;;4994521;28;20656;-88
2024/04/05 02:27:19;;;;;;;5.32;1.90;;;10.80;99.90;;;;;;4981985;28;20294;-88
2024/04/05 02:29:46;;;;;;;4.30;1.80;;;10.80;99.90;;;;;;4994422;28;20286;-88
2024/04/05 02:32:13;;;;;;;7.80;2.63;;;10.80;99.90;;;;;;4984540;28;20218;-88
2024/04/05 02:34:40;;;;;;;3.70;1.90;;;10.80;99.90;;;;;;4976707;28;20672;-89
2024/04/05 02:37:08;;;;;;;3.22;1.90;;;10.80;99.90;;;;;;4980793;28;20243;-88
2024/04/05 02:39:34;;;;;;;3.28;2.10;;;10.80;99.90;;;;;;4977131;28;20208;-88
2024/04/05 02:42:00;;;;;;;5.15;2.45;;;10.90;99.90;;;;;;4979319;28;20227;-88
2024/04/05 02:44:33;;;;;;;3.67;1.85;;;11.00;99.90;;;;;;4977040;28;20230;-88
2024/04/05 02:46:59;;;;;;;4.63;1.95;;;11.10;99.90;;;;;;4994605;28;20560;-88
2024/04/05 02:49:27;;;;;;;5.13;2.10;;;11.10;99.90;;;;;;4977108;28;20211;-88
2024/04/05 02:51:53;;;;;;;6.72;2.13;;;11.10;99.90;;;;;;4994311;28;20207;-88
2024/04/05 02:54:20;;;;;;;6.13;1.83;;;11.00;99.90;;;;;;4994196;28;20196;-88
2024/04/05 02:56:46;;;;;;;4.30;2.08;;;10.90;99.90;;;;;;4994006;28;20226;-88
2024/04/05 02:59:12;;;;;;;4.47;2.10;;;10.80;99.90;;;;;;4994091;28;20649;-88
2024/04/05 03:01:38;;;;;;;6.47;1.88;;;10.80;99.90;;;;;;4993493;28;20649;-88
2024/04/05 03:04:05;;;;;;;2.75;2.00;;;10.80;99.90;;;;;;4976544;28;20220;-88
2024/04/05 03:06:32;;;;;;;3.42;1.95;;;10.80;99.90;;;;;;4993875;28;20192;-88
2024/04/05 03:08:59;;;;;;;5.13;1.92;;;10.70;99.90;;;;;;4991725;28;20210;-88
2024/04/05 03:11:25;;;;;;;2.38;1.80;;;10.80;99.90;;;;;;4975238;28;20189;-88
2024/04/05 03:17:14;;;;;;;3.90;2.00;;;10.90;99.90;;;;;;4979540;28;20258;-88
2024/04/05 03:19:40;;;;;;;3.40;1.73;;;11.00;99.90;;;;;;4976303;28;20204;-89
2024/04/05 03:22:09;;;;;;;2.35;1.75;;;10.90;99.90;;;;;;4992698;28;20234;-88
2024/04/05 03:24:35;;;;;;;3.47;1.90;;;10.90;99.90;;;;;;4993907;28;20223;-88
2024/04/05 03:27:02;;;;;;;4.13;1.83;;;10.90;99.90;;;;;;4993785;28;20589;-88
2024/04/05 03:29:27;;;;;;;4.60;2.22;;;10.80;99.90;;;;;;4976415;28;20207;-88
2024/04/05 03:31:54;;;;;;;3.40;1.65;;;10.70;99.90;;;;;;4976444;28;20200;-88
2024/04/05 03:34:20;;;;;;;2.75;1.80;;;10.80;99.90;;;;;;4976617;28;20203;-88
2024/04/05 03:36:47;;;;;;;4.80;1.90;;;10.70;99.90;;;;;;4975427;28;20668;-88
2024/04/05 03:39:16;;;;;;;3.30;1.70;;;10.80;99.90;;;;;;4988462;28;20216;-88
2024/04/05 03:41:43;;;;;;;2.47;1.75;;;10.70;99.90;;;;;;4993642;28;20196;-88
2024/04/05 03:44:09;;;;;;;3.88;1.75;;;10.70;99.90;;;;;;4993858;28;20207;-87
2024/04/05 03:46:38;;;;;;;6.30;2.30;;;10.70;99.90;;;;;;4976911;28;20291;-87
2024/04/05 03:49:05;;;;;;;2.70;2.00;;;10.80;99.90;;;;;;4994080;28;20250;-87
2024/04/05 03:51:33;;;;;;;4.07;1.90;;;10.90;99.90;;;;;;4984704;28;20223;-87
2024/04/05 03:53:59;;;;;;;4.03;1.80;;;10.90;99.90;;;;;;4993855;28;20291;-88
2024/04/05 03:56:28;;;;;;;4.88;1.80;;;11.00;99.90;;;;;;4971289;28;20204;-88
2024/04/05 03:58:54;;;;;;;3.05;1.90;;;11.00;99.90;;;;;;4993909;28;20203;-88
2024/04/05 04:01:22;;;;;;;2.90;1.90;;;11.00;99.90;;;;;;4993280;28;20278;-88
2024/04/05 04:03:57;;;;;;;2.40;1.80;;;11.00;99.90;;;;;;5010465;28;20241;-88
2024/04/05 04:06:49;;;;;;;3.72;2.13;;;11.10;99.90;;;;;;5013298;28;20699;-88
2024/04/05 04:09:17;;;;;;;3.30;1.63;;;11.10;99.90;;;;;;5016807;28;20230;-88
2024/04/05 04:11:44;;;;;;;3.47;1.80;;;11.00;99.90;;;;;;5006416;28;20239;-88
2024/04/05 04:14:13;;;;;;;3.50;2.03;;;10.90;99.90;;;;;;4997370;28;20200;-88
2024/04/05 04:16:40;;;;;;;2.22;1.67;;;10.80;99.90;;;;;;4995905;28;20661;-87
2024/04/05 04:19:08;;;;;;;3.55;1.92;;;10.80;99.90;;;;;;4996951;28;20561;-87
2024/04/05 04:21:34;;;;;;;3.47;1.90;;;10.80;99.90;;;;;;4996890;28;20657;-88
2024/04/05 04:24:01;;;;;;;4.43;1.73;;;10.80;99.90;;;;;;4979542;28;20242;-88
2024/04/05 04:26:27;;;;;;;2.53;1.70;;;10.80;99.90;;;;;;4995583;28;20208;-88
2024/04/05 04:28:57;;;;;;;2.60;1.55;;;10.70;99.90;;;;;;4996572;28;20214;-88
2024/04/05 04:31:23;;;;;;;3.15;1.98;;;10.70;99.90;;;;;;4995986;28;20214;-88
2024/04/05 04:33:51;;;;;;;4.20;1.67;;;10.70;99.90;;;;;;4980521;28;20196;-88
2024/04/05 04:37:03;;;;;;;3.15;1.55;;;10.80;99.90;;;;;;4982599;28;20203;-87
2024/04/05 04:39:32;;;;;;;4.40;1.60;;;10.80;99.90;;;;;;4990123;28;20547;-88
2024/04/05 04:41:57;;;;;;;3.88;1.70;;;10.80;99.90;;;;;;4996287;28;20656;-88
2024/04/05 04:44:27;;;;;;;3.17;1.80;;;10.80;99.90;;;;;;4996293;28;20215;-88
2024/04/05 04:46:53;;;;;;;2.35;1.60;;;10.80;99.90;;;;;;4996070;28;20242;-88
2024/04/05 04:49:20;;;;;;;2.30;1.70;;;10.80;99.90;;;;;;4996758;28;20633;-87
2024/04/05 04:51:46;;;;;;;2.30;1.40;;;10.80;99.90;;;;;;4995947;28;20208;-88
2024/04/05 04:54:14;;;;;;;5.10;1.60;;;10.80;99.90;;;;;;4962955;28;20210;-88
2024/04/05 04:56:41;;;;;;;3.95;1.60;;;10.80;99.90;;;;;;4978854;28;20211;-88
2024/04/05 04:59:09;;;;;;;4.15;1.73;;;10.70;99.90;;;;;;4993056;28;20200;-88
2024/04/05 05:01:36;;;;;;;7.35;2.00;;;10.80;99.90;;;;;;4976954;28;20201;-88
2024/04/05 05:04:14;;;;;;;2.95;1.80;;;10.80;99.90;;;;;;4976987;28;20311;-88
2024/04/05 05:06:41;;;;;;;2.78;1.50;;;10.80;99.90;;;;;;4976980;28;20203;-88
2024/04/05 05:09:10;;;;;;;3.58;1.88;;;10.80;99.90;;;;;;4967472;28;20247;-88
2024/04/05 05:11:38;;;;;;;5.07;1.70;;;10.70;99.90;;;;;;4979092;28;20228;-88
2024/04/05 05:14:05;;;;;;;2.97;1.70;;;10.70;99.90;;;;;;4978436;28;20200;-88
2024/04/05 05:20:38;;;;;;;5.03;2.20;;;10.70;99.90;;;;;;4995944;28;20210;-88
2024/04/05 05:23:27;;;;;;;4.93;2.00;;;10.80;99.90;;;;;;4996938;28;20255;-88
2024/04/05 05:39:00;;;;;;;2.22;1.50;;;11.10;99.90;;;;;;4980144;28;20620;-89
2024/04/05 05:41:29;;;;;;;3.33;1.70;;;11.20;99.90;;;;;;4993928;28;20250;-88
2024/04/05 05:43:56;;;;;;;3.70;1.80;;;11.30;99.90;;;;;;4977412;28;20298;-89
2024/04/05 05:46:22;;;;;;;4.25;1.70;;;11.40;99.90;;;;;;4987704;28;20204;-89
2024/04/05 05:48:50;;;;;;;2.10;1.70;;;11.40;99.90;;;;;;4977355;28;20208;-87
2024/04/05 05:51:17;;;;;;;4.05;1.52;;;11.40;99.90;;;;;;4994115;28;20274;-89
2024/04/05 05:53:45;;;;;;;3.30;1.70;;;11.40;99.90;;;;;;4961872;28;20302;-88
2024/04/05 05:56:10;;;;;;;2.28;1.60;;;11.40;99.90;;;;;;4977097;28;20203;-88
2024/04/05 05:58:39;;;;;;;5.43;1.92;;;11.50;99.90;;;;;;4995458;28;20262;-89
2024/04/05 06:01:05;;;;;;;2.45;1.85;;;11.50;99.90;;;;;;4979618;28;20215;-88
2024/04/05 06:03:33;;;;;;;3.30;1.77;;;11.60;99.90;;;;;;4994417;28;20314;-89
2024/04/05 06:06:02;;;;;;;2.03;1.60;;;11.60;99.90;;;;;;4995441;28;20200;-88
2024/04/05 06:08:30;;;;;;;3.03;1.90;;;11.80;99.90;;;;;;4975782;28;20204;-88
2024/04/05 06:10:56;;;;;;;2.83;1.58;;;11.90;99.90;;;;;;4960748;28;20215;-88
2024/04/05 06:13:24;;;;;;;2.88;1.60;;;12.10;99.90;;;;;;4973157;28;20200;-89
2024/04/05 06:15:54;;;;;;;4.03;1.80;;;12.30;99.90;;;;;;4988990;28;20634;-88
2024/04/05 06:18:21;;;;;;;7.78;1.90;;;12.50;99.90;;;;;;4988566;28;20208;-88
2024/04/05 06:20:52;;;;;;;2.40;1.73;;;12.50;99.90;;;;;;4977405;28;20202;-91
2024/04/05 06:23:19;;;;;;;1.67;1.58;;;12.50;99.90;;;;;;4992598;28;20215;-88
2024/04/05 06:25:53;;;;;;;3.15;1.75;;;12.50;99.90;;;;;;4977114;28;20208;-88
2024/04/05 06:28:20;;;;;;;2.60;1.50;;;12.50;99.90;;;;;;4992975;28;20218;-88
2024/04/05 06:30:46;;;;;;;5.55;1.80;;;12.60;99.90;;;;;;4991276;28;20211;-88
2024/04/05 06:33:13;;;;;;;5.38;1.80;;;12.60;99.90;;;;;;4972444;28;20207;-88
2024/04/05 06:35:39;;;;;;;1.88;1.50;;;12.60;99.90;;;;;;4978020;28;20208;-88
2024/04/05 06:38:07;;;;;;;5.47;1.73;;;12.70;99.90;;;;;;4992916;28;20203;-89
2024/04/05 06:40:33;;;;;;;3.40;1.85;;;12.70;99.90;;;;;;4993002;28;20299;-90
2024/04/05 06:43:02;;;;;;;2.08;1.50;;;12.70;99.90;;;;;;4978310;28;20234;-88
2024/04/05 06:45:28;;;;;;;3.65;1.75;;;12.80;99.90;;;;;;4945815;28;20379;-92
2024/04/05 06:47:56;;;;;;;4.38;1.55;;;13.00;99.90;;;;;;4978546;28;20708;-88
2024/04/05 06:50:22;;;;;;;2.30;1.70;;;13.10;99.90;;;;;;4989763;28;20234;-89
2024/04/05 06:52:49;;;;;;;3.47;1.50;;;13.20;99.90;;;;;;4984476;28;20219;-88
2024/04/05 06:55:19;;;;;;;1.25;1.15;;;13.10;99.90;;;;;;4976692;28;20672;-87
2024/04/05 06:57:45;;;;;;;3.75;1.55;;;13.20;99.90;;;;;;4993666;28;20199;-88
2024/04/05 07:00:15;;;;;;;1.83;1.60;;;13.30;99.90;;;;;;4971113;28;20247;-91
2024/04/05 07:02:42;;;;;;;5.30;1.67;;;13.40;99.90;;;;;;4975124;28;20318;-87
2024/04/05 07:05:08;;;;;;;3.78;1.67;;;13.50;99.90;;;;;;4973937;28;20219;-88
2024/04/05 07:07:36;;;;;;;4.07;1.38;;;13.80;99.90;;;;;;4992735;28;20203;-88
2024/04/05 07:10:02;;;;;;;3.75;1.70;;;14.00;98.80;;;;;;4974882;28;20204;-88
2024/04/05 07:12:29;;;;;;;3.08;1.50;;;14.40;98.80;;;;;;4998274;28;20221;-88
2024/04/05 07:14:55;;;;;;;2.13;1.30;;;14.60;98.20;;;;;;4976996;28;20199;-88
2024/04/05 07:27:29;;;;;;;2.60;1.30;;;15.00;93.90;;;;;;4991795;28;20187;-89
2024/04/05 07:36:40;;;;;;;2.30;1.50;;;14.50;96.00;;;;;;4987857;28;20225;-87
2024/04/05 07:39:08;;;;;;;3.55;1.40;;;14.80;96.20;;;;;;4993687;28;20193;-90
2024/04/05 07:41:35;;;;;;;4.15;1.40;;;15.40;94.90;;;;;;4990668;28;20204;-87
2024/04/05 07:44:02;;;;;;;3.38;1.45;;;16.00;94.00;;;;;;4978947;28;20235;-87
2024/04/05 07:46:29;;;;;;;3.05;1.63;;;16.20;92.50;;;;;;4997022;28;20234;-86
2024/04/05 07:48:55;;;;;;;1.98;1.55;;;16.50;91.80;;;;;;4981436;28;20604;-88
2024/04/05 07:51:22;;;;;;;3.50;1.80;;;16.50;91.80;;;;;;4996171;28;20657;-88
2024/04/05 07:53:48;;;;;;;2.00;1.30;;;16.50;91.80;;;;;;4987064;28;20266;-88
2024/04/05 07:56:15;;;;;;;2.35;1.40;;;16.70;91.00;;;;;;4994035;28;20654;-88
2024/04/05 07:58:41;;;;;;;3.20;1.38;;;16.90;85.20;;;;;;4982325;28;20203;-86
2024/04/05 08:01:10;;;;;;;2.30;1.40;;;17.50;76.40;;;;;;4992504;28;20198;-86
2024/04/05 08:03:35;;;;;;;1.50;1.27;;;17.70;59.30;;;;;;4995804;28;20232;-87
2024/04/05 08:06:02;;;;;;;1.88;1.33;;;17.80;64.70;;;;;;4995048;28;20656;-87
2024/04/05 08:08:28;;;;;;;3.38;1.48;;;18.10;54.20;;;;;;4994607;28;20208;-86
2024/04/05 08:11:01;;;;;;;1.38;1.10;;;18.50;53.40;;;;;;4995033;28;20200;-85
2024/04/05 08:13:27;;;;;;;1.63;1.30;;;18.40;53.70;;;;;;4976140;28;20724;-86
2024/04/05 08:15:54;;;;;;;2.95;1.73;;;18.40;48.20;;;;;;4976258;28;20200;-89
2024/04/05 08:18:22;;;;;;;3.45;1.30;;;18.40;49.30;;;;;;4998948;28;20203;-88
2024/04/05 08:20:48;;;;;;;2.38;1.17;;;18.40;46.90;;;;;;4998126;28;20603;-86
2024/04/05 08:23:14;;;;;;;2.70;1.27;;;18.30;46.10;;;;;;4980052;28;20212;-85
2024/04/05 08:25:41;;;;;;;2.33;1.20;;;18.20;43.30;;;;;;4996934;28;20208;-85
2024/04/05 08:28:07;;;;;;;2.20;0.95;;;18.20;44.10;;;;;;4981689;28;20649;-85
2024/04/05 08:30:34;;;;;;;1.38;0.90;;;18.30;42.30;;;;;;4996990;28;20210;-85
2024/04/05 08:36:34;;;;;;;2.85;1.10;;;18.70;37.50;;;;;;4997556;28;20180;-86
2024/04/05 08:39:16;;;;;;;2.83;1.15;;;18.70;35.40;;;;;;4995473;28;20200;-87
2024/04/05 08:41:45;;;;;;;1.35;1.25;;;19.40;36.10;;;;;;4995078;28;20214;-86
2024/04/05 08:44:12;;;;;;;2.10;1.50;;;19.60;34.60;;;;;;4994383;28;20230;-85
2024/04/05 08:46:40;;;;;;;2.20;1.38;;;19.90;32.00;;;;;;4994207;28;20612;-83
2024/04/05 08:49:07;;;;;;;2.35;1.40;;;20.30;33.40;;;;;;4990706;28;20650;-85
2024/04/05 08:51:35;;;;;;;1.27;1.17;;;20.70;28.10;;;;;;4991737;28;21024;-83
2024/04/05 08:54:02;;;;;;;1.88;1.30;;;20.80;27.40;;;;;;4991409;28;20243;-84
2024/04/05 08:56:30;;;;;;;3.45;1.15;;;21.00;28.50;;;;;;4973016;28;20230;-82
2024/04/05 08:59:07;;;;;;;2.28;1.40;;;21.30;25.40;;;;;;4987700;28;20212;-82
2024/04/05 09:01:34;;;;;;;2.42;1.23;;;21.60;21.60;;;;;;4994829;28;20253;-83
2024/04/05 09:04:01;;;;;;;3.13;1.42;;;21.60;21.60;;;;;;4986104;28;20228;-83
2024/04/05 09:06:27;;;;;;;2.53;1.40;;;22.00;20.90;;;;;;4986835;28;20203;-86
2024/04/05 09:08:58;;;;;;;1.58;1.48;;;22.70;17.70;;;;;;4989577;28;20210;-87
2024/04/05 09:11:25;;;;;;;1.52;1.42;;;22.90;16.70;;;;;;4987318;28;20294;-85
2024/04/05 09:13:55;;;;;;;1.40;1.30;;;22.70;17.00;;;;;;4986817;28;20203;-86
2024/04/05 09:16:23;;;;;;;1.83;1.23;;;22.70;17.00;;;;;;4995166;28;20211;-87
2024/04/05 09:18:49;;;;;;;1.27;1.15;;;23.20;16.70;;;;;;4991152;28;20192;-87
2024/04/05 09:21:17;;;;;;;3.03;1.50;;;24.10;14.60;;;;;;4997765;28;20219;-84
2024/04/05 09:23:46;;;;;;;2.35;1.30;;;24.60;14.00;;;;;;4989860;28;20293;-90
2024/04/05 09:26:19;;;;;;;3.13;1.40;;;24.20;13.70;;;;;;4992312;28;20287;-89
2024/04/05 09:28:56;;;;;;;2.65;1.60;;;25.20;12.90;;;;;;4988784;28;20272;-88
2024/04/05 09:31:24;;;;;;;2.40;1.60;;;26.30;10.80;;;;;;4989627;28;20214;-87
2024/04/05 09:33:50;;;;;;;3.15;1.42;;;25.80;9.30;;;;;;4992016;28;20203;-87
2024/04/05 09:36:18;;;;;;;2.97;1.40;;;26.10;9.90;;;;;;4991450;28;20200;-85
2024/04/05 09:38:45;;;;;;;1.60;1.50;;;26.90;9.50;;;;;;4992651;28;20470;-88
2024/04/05 09:41:13;;;;;;;2.38;1.40;;;27.10;9.10;;;;;;4996160;28;20266;-87
2024/04/05 09:43:44;;;;;;;2.42;1.70;;;27.60;9.00;;;;;;4995804;28;20313;-92
2024/04/05 09:46:14;;;;;;;1.90;1.80;;;27.40;9.90;;;;;;4995523;28;20204;-88
2024/04/05 09:48:40;;;;;;;2.30;2.10;;;27.30;6.80;;;;;;5431056;23;20332;-90
2024/04/05 09:51:15;;;;;;;3.75;1.63;;;27.20;7.30;;;;;;5007018;28;20222;-92
2024/04/05 09:53:45;;;;;;;1.73;1.50;;;27.80;7.20;;;;;;5014038;28;20225;-92
2024/04/05 09:56:13;;;;;;;1.77;1.67;;;28.20;5.80;;;;;;5016353;28;20195;-91
2024/04/05 09:58:43;;;;;;;2.00;1.83;;;28.70;7.80;;;;;;5012359;28;20211;-93
2024/04/05 10:01:11;;;;;;;2.47;1.80;;;28.70;4.20;;;;;;5005430;28;20210;-91
2024/04/05 10:03:39;;;;;;;2.45;2.00;;;28.30;4.10;;;;;;5008938;28;20234;-91
2024/04/05 10:06:14;;;;;;;2.00;1.80;;;27.90;4.70;;;;;;5011586;28;20292;-92
2024/04/05 10:08:42;;;;;;;2.17;1.67;;;27.80;6.90;;;;;;5013993;28;20219;-93
2024/04/05 10:11:15;;;;;;;1.52;1.42;;;28.70;3.70;;;;;;5017535;28;20641;-93
2024/04/05 10:14:14;;;;;;;1.98;1.70;;;28.70;5.60;;;;;;5019363;28;20226;-93
2024/04/05 10:30:29;;;;;;;1.60;1.50;;;28.20;3.90;;;;;;4949590;28;20282;-94
2024/04/05 10:47:13;;;;;;;2.25;1.40;;;27.70;4.40;;;;;;5006938;28;20202;-92
2024/04/05 10:49:40;;;;;;;1.88;1.55;;;27.60;2.70;;;;;;5019429;28;20289;-94
2024/04/05 10:52:08;;;;;;;2.05;1.60;;;27.20;5.70;;;;;;5038631;28;20628;-94
2024/04/05 10:54:36;;;;;;;2.13;1.60;;;26.50;3.30;;;;;;5040433;28;20222;-94
2024/04/05 10:57:05;;;;;;;2.00;1.50;;;26.40;4.10;;;;;;5023605;28;20556;-94
2024/04/05 10:59:33;;;;;;;3.50;1.48;;;26.30;7.10;;;;;;5019684;28;20194;-90
2024/04/05 11:02:00;;;;;;;1.65;1.50;;;26.10;5.10;;;;;;5029837;28;20202;-87
2024/04/05 11:04:26;;;;;;;1.80;1.45;;;26.10;4.80;;;;;;5026573;28;20260;-89
2024/04/05 11:07:00;;;;;;;2.28;1.45;;;26.70;2.70;;;;;;5028648;28;20205;-87
2024/04/05 11:09:32;;;;;;;2.42;1.60;;;27.00;2.70;;;;;;5028829;28;20220;-87
2024/04/05 11:12:00;;;;;;;1.95;1.80;;;26.40;4.70;;;;;;5025073;28;20212;-87
2024/04/05 11:14:25;;;;;;;1.77;1.65;;;26.00;3.10;;;;;;5009364;28;20253;-86
2024/04/05 11:17:00;;;;;;;1.63;1.52;;;25.60;4.80;;;;;;5030284;28;20230;-84
2024/04/05 11:19:26;;;;;;;1.50;1.27;;;25.40;6.10;;;;;;5031300;28;20258;-84
2024/04/05 11:21:54;;;;;;;1.80;1.25;;;25.00;5.10;;;;;;5016463;28;20213;-84
2024/04/05 11:24:20;;;;;;;1.02;1.00;;;24.90;6.10;;;;;;5035378;28;20236;-83
2024/04/05 11:26:51;;;;;;;3.40;1.05;;;24.80;7.10;;;;;;5031755;28;20655;-86
2024/04/05 11:29:18;;;;;;;2.92;1.13;;;24.50;6.90;;;;;;5031583;28;20193;-85
2024/04/05 11:31:45;;;;;;;1.88;1.00;;;24.40;6.10;;;;;;5030121;28;20202;-84
2024/04/05 11:34:12;;;;;;;1.60;1.17;;;24.40;5.80;;;;;;5032354;28;20222;-84
2024/04/05 11:36:39;;;;;;;1.83;1.08;;;24.30;8.30;;;;;;5032114;28;20205;-84
2024/04/05 11:39:05;;;;;;;1.95;1.02;;;24.30;6.60;;;;;;5032072;28;20202;-84
2024/04/05 11:41:31;;;;;;;2.15;1.17;;;24.30;7.90;;;;;;5030928;28;20661;-84
2024/04/05 11:43:57;;;;;;;1.83;1.17;;;24.30;7.80;;;;;;5031578;28;20218;-84
2024/04/05 11:46:26;;;;;;;1.58;0.98;;;24.30;4.70;;;;;;5032587;28;20221;-86
2024/04/05 11:48:52;;;;;;;1.52;1.10;;;24.40;6.40;;;;;;5033366;28;20214;-85
2024/04/05 11:51:21;;;;;;;1.48;1.13;;;24.30;6.00;;;;;;5033590;28;20285;-85
2024/04/05 11:53:46;;;;;;;2.33;0.80;;;24.20;4.10;;;;;;5029914;28;20758;-85
2024/04/05 11:56:13;;;;;;;4.10;1.40;;;24.30;5.20;;;;;;5034016;28;20190;-85
2024/04/05 11:58:39;;;;;;;1.00;0.90;;;24.30;3.80;;;;;;5014830;28;20202;-85
2024/04/05 12:01:06;;;;;;;1.25;1.10;;;24.20;3.40;;;;;;5033788;28;20194;-84
2024/04/05 12:03:32;;;;;;;2.17;1.23;;;24.20;4.10;;;;;;5034229;28;20207;-84
2024/04/05 12:06:00;;;;;;;2.50;1.20;;;24.30;5.30;;;;;;5032638;28;20568;-84
2024/04/05 12:08:27;;;;;;;0.98;0.88;;;24.30;3.60;;;;;;5028329;28;21025;-86
2024/04/05 12:10:54;;;;;;;1.17;1.08;;;24.30;4.50;;;;;;5030394;28;20199;-84
2024/04/05 12:13:22;;;;;;;1.92;1.10;;;24.30;5.20;;;;;;5036555;28;20210;-86
2024/04/05 12:15:49;;;;;;;4.43;1.10;;;24.30;3.40;;;;;;5034725;28;20210;-86
2024/04/05 12:18:14;;;;;;;1.10;1.00;;;24.20;3.80;;;;;;5003430;28;20195;-84
2024/04/05 12:20:46;;;;;;;1.23;1.13;;;24.00;3.70;;;;;;5033071;28;20265;-87
2024/04/05 12:23:12;;;;;;;3.13;1.60;;;23.90;4.90;;;;;;5016097;28;20660;-87
2024/04/05 12:25:41;;;;;;;1.98;1.00;;;24.10;4.50;;;;;;5032260;28;20253;-88
2024/04/05 12:28:07;;;;;;;1.80;1.05;;;24.30;4.20;;;;;;5034207;28;20207;-87
2024/04/05 12:30:37;;;;;;;1.20;1.10;;;24.50;3.00;;;;;;5033288;28;20198;-87
2024/04/05 12:33:04;;;;;;;2.10;0.93;;;24.50;4.80;;;;;;5036177;28;20191;-91
2024/04/05 12:35:33;;;;;;;1.60;1.23;;;24.50;4.30;;;;;;5045930;28;20231;-92
2024/04/05 12:37:59;;;;;;;2.03;1.23;;;24.40;4.20;;;;;;5035483;28;20245;-91
2024/04/05 12:40:39;;;;;;;1.30;1.20;;;24.30;4.10;;;;;;5037063;28;20230;-92
2024/04/05 12:43:06;;;;;;;2.70;1.20;;;24.20;5.70;;;;;;5024828;28;20203;-91
2024/04/05 12:45:33;;;;;;;1.05;1.00;;;23.80;4.90;;;;;;5035849;28;20214;-91
2024/04/05 12:47:59;;;;;;;2.25;1.08;;;23.50;4.60;;;;;;4994603;28;20204;-91
2024/04/05 12:50:26;;;;;;;4.70;2.13;;;23.30;4.50;;;;;;5019665;28;20230;-92
2024/04/05 12:52:52;;;;;;;2.28;1.58;;;23.30;8.40;;;;;;5034819;28;21039;-91
2024/04/05 12:55:19;;;;;;;2.30;1.52;;;23.30;6.30;;;;;;5036047;28;20222;-91
2024/04/05 12:57:45;;;;;;;1.25;1.00;;;23.40;8.10;;;;;;5000563;28;20210;-92
2024/04/05 13:00:15;;;;;;;1.48;1.27;;;23.50;5.20;;;;;;5040622;28;20199;-92
2024/04/05 13:02:41;;;;;;;1.60;1.00;;;23.60;6.90;;;;;;5032638;28;20753;-91
2024/04/05 13:05:09;;;;;;;1.95;1.05;;;23.80;3.80;;;;;;5035928;28;20198;-92
2024/04/05 13:07:35;;;;;;;1.95;1.25;;;24.10;5.00;;;;;;5020878;28;20640;-91
2024/04/05 13:10:02;;;;;;;1.60;1.00;;;24.60;7.50;;;;;;5002368;28;20229;-87
2024/04/05 13:12:28;;;;;;;1.00;0.90;;;24.60;3.00;;;;;;5013415;28;20203;-87
2024/04/05 13:14:55;;;;;;;2.40;1.00;;;24.60;2.80;;;;;;5013855;28;20214;-87
2024/04/05 13:17:23;;;;;;;1.60;1.02;;;24.40;3.60;;;;;;5031801;28;20195;-86
2024/04/05 13:19:50;;;;;;;1.15;1.00;;;24.40;4.00;;;;;;5029665;28;20203;-87
2024/04/05 13:22:16;;;;;;;2.45;1.80;;;24.50;7.20;;;;;;5031470;28;20218;-87
2024/04/05 13:24:43;;;;;;;1.73;1.23;;;24.40;4.20;;;;;;5014181;28;21445;-86
2024/04/05 13:27:09;;;;;;;2.58;2.20;;;24.40;4.20;;;;;;5013570;28;20553;-87
2024/04/05 13:29:36;;;;;;;0.95;0.90;;;24.40;4.00;;;;;;5031133;28;20245;-86
2024/04/05 13:32:02;;;;;;;1.20;1.10;;;24.40;3.40;;;;;;5029412;28;20206;-86
2024/04/05 13:34:31;;;;;;;3.38;1.20;;;24.50;4.30;;;;;;5010832;28;20219;-86
2024/04/05 13:36:57;;;;;;;3.20;1.20;;;24.60;4.90;;;;;;5028811;28;20195;-88
2024/04/05 13:39:23;;;;;;;2.38;1.15;;;24.70;5.00;;;;;;5033936;28;20208;-87
2024/04/05 13:41:50;;;;;;;3.33;1.45;;;24.60;4.40;;;;;;4997899;28;20211;-86
2024/04/05 13:44:18;;;;;;;1.20;1.10;;;24.60;4.30;;;;;;5016459;28;20226;-87
2024/04/05 13:46:43;;;;;;;1.42;1.10;;;24.50;3.30;;;;;;5029019;28;20210;-86
2024/04/05 13:49:10;;;;;;;1.55;1.33;;;24.40;4.20;;;;;;5028955;28;20237;-87
2024/04/05 13:51:38;;;;;;;1.10;1.00;;;24.20;4.10;;;;;;5008723;28;20207;-86
2024/04/05 13:54:05;;;;;;;2.03;1.40;;;24.00;5.00;;;;;;5029483;28;20221;-86
2024/04/05 13:56:31;;;;;;;1.58;1.20;;;23.80;4.80;;;;;;5008103;28;20207;-86
2024/04/05 13:58:58;;;;;;;1.40;1.30;;;23.70;5.50;;;;;;5031008;28;20252;-88
2024/04/05 14:01:24;;;;;;;3.05;1.90;;;23.50;5.70;;;;;;5024788;28;20206;-87
2024/04/05 14:03:52;;;;;;;1.33;1.10;;;23.50;5.30;;;;;;5030598;28;20214;-87
2024/04/05 14:06:18;;;;;;;1.23;1.10;;;23.70;6.90;;;;;;5028864;28;20206;-87
2024/04/05 14:08:49;;;;;;;5.03;2.58;;;23.70;6.70;;;;;;5024678;28;20226;-87
2024/04/05 14:11:16;;;;;;;1.52;1.15;;;23.70;6.90;;;;;;5008254;28;20341;-85
2024/04/05 14:13:43;;;;;;;3.10;1.30;;;23.60;5.50;;;;;;5025855;28;20705;-86
2024/04/05 14:16:09;;;;;;;2.65;1.40;;;23.80;4.60;;;;;;5008766;28;20202;-87
2024/04/05 14:18:36;;;;;;;2.85;1.45;;;24.00;4.60;;;;;;5029255;28;20207;-87
2024/04/05 14:21:08;;;;;;;2.70;1.30;;;24.10;4.00;;;;;;5023245;28;20660;-87
2024/04/05 14:23:35;;;;;;;3.97;2.20;;;24.10;4.50;;;;;;5007285;28;20203;-88
2024/04/05 14:26:03;;;;;;;1.55;1.35;;;24.20;4.10;;;;;;5025536;28;21579;-88
2024/04/05 14:28:30;;;;;;;1.60;1.30;;;24.20;4.10;;;;;;5026328;28;20195;-87
2024/04/05 14:30:58;;;;;;;1.13;1.08;;;24.30;3.20;;;;;;5025346;28;20199;-88
2024/04/05 14:33:28;;;;;;;3.13;1.52;;;24.20;3.10;;;;;;5023595;28;20199;-87
2024/04/05 14:35:59;;;;;;;1.65;1.10;;;24.30;1.70;;;;;;5026595;28;20226;-87
2024/04/05 14:38:25;;;;;;;3.63;1.83;;;24.10;2.60;;;;;;5011944;28;20202;-88
2024/04/05 14:40:51;;;;;;;1.50;1.20;;;24.00;2.90;;;;;;5028760;28;20207;-89
2024/04/05 14:43:20;;;;;;;2.13;1.45;;;23.70;2.60;;;;;;5025270;28;20230;-87
2024/04/05 14:45:53;;;;;;;1.20;1.10;;;23.40;2.70;;;;;;4998532;28;20511;-87
2024/04/05 14:48:20;;;;;;;2.65;1.20;;;23.20;3.50;;;;;;5023370;28;20207;-87
2024/04/05 14:50:48;;;;;;;1.90;1.35;;;23.20;5.00;;;;;;5025216;28;20272;-87
2024/04/05 14:53:16;;;;;;;1.90;1.20;;;23.20;4.10;;;;;;5011916;28;20282;-87
2024/04/05 14:55:42;;;;;;;1.77;1.60;;;23.10;3.90;;;;;;5024014;28;20973;-90
2024/04/05 14:58:10;;;;;;;15.27;13.65;;;23.10;4.80;;;;;;5028392;28;20194;-90